Brainerd Lakes Regional Airport
KBRD : now visible

Airfield :











YOU CAN JOIN US ON...

 
LOGIN :

Register | Disclaimer

   EN    FR    IT 

 









Legend :    VFR   Marginal VFR   IFR   Intensive IFR   Very Intensive IFR
Visi :
Ceiling :
>= 8 km
>= 3000ft
5 to 8 km
1000 to 3000 ft
1500m to 5 km
500 to 1000 ft
800 to 1500m
200 to 500 ft
< 800m
< 200 ft
Symbols :   Thunderstorms  Fog  Heavy snow  Heavy precipitations  Wind > 20 kt






- Airport Elevation : 1232 ft


KBRD - Brainerd Lakes Regional

CURRENT METAR :
  • 101753Z AUTO 35008G16KT 10SM OVC020 07/02 A2976 RMK AO2 SLP088 T00720017 10072 20039 58004

EXPIRED METARs :
  • 101653Z AUTO 35011KT 10SM OVC019 07/01 A2978 RMK AO2 SLP093 T00670011
  • 101553Z AUTO 34012KT 10SM OVC017 06/01 A2978 RMK AO2 SLP094 T00560006
  • 101526Z AUTO 34011KT 10SM OVC015 05/01 A2978 RMK AO2 T00500011

TAF KBRD
Valid from the 10 at 18:00 until the 11 at 18:00 UTC


101721Z 1018/1118 35011KT P6SM BKN020
FM110000 36007KT P6SM BKN035
FM110900 01005KT P6SM BKN021
FM111200 36006KT P6SM BKN012
KZMP FIR / North America



MET'MAP, your aeronautical weather chart ! - Copyright ORBIFLY December 2007 - Disclaimer

ORBIFLY MET'MAP TEAM :

Programming & Development : Alexandra Zaïnal
Concept & original design : Baudouin d'Aumeries
Assistance for programming : Marc-Olivier Méhu
Technical & hardware support : Manuel Goepfert

Contact : metmap@orbifly.com




SOURCES & CREDITS :

   NOAA       Earth
Advisory